Terminal Aerodrome Forecast
Issued by NWS Dallas/Fort Worth, TX

Home | Current Version | Previous Version | Text Only | Print | Product List | Glossary On
Versions: 1 2 3 4 5 6 7 8 9 10 11 12 13 14 15 16 17 18 19 20 21 22 23 24 25 26 27
000
FTUS44 KFWD 301700
TAFDFW
TAF
KDFW 301732Z 3018/3124 16011KT P6SM SCT060 BKN120
     FM310500 15010KT P6SM VCSH OVC060
     FM310800 04007KT P6SM VCTS OVC035CB
     FM311300 34008KT P6SM BKN025
     FM311800 34014KT P6SM BKN040=

USA.gov is the U.S. government's official web portal to all federal, state and local government web resources and services.